createdAt,value
2019-03-03T00:29:06.594Z,8.10
2019-03-03T00:44:09.994Z,8.10
2019-03-03T00:47:09.203Z,8.10
2019-03-03T00:53:00.746Z,8.20
2019-03-03T00:55:46.813Z,8.10
2019-03-03T01:09:47.563Z,8.10
2019-03-03T01:16:50.828Z,8.10
2019-03-03T01:19:57.267Z,8.20
2019-03-03T01:36:33.761Z,8.10
2019-03-03T01:42:19.120Z,8.10
2019-03-03T01:44:59.373Z,8.00
2019-03-03T01:56:58.928Z,8.00
2019-03-03T01:59:58.236Z,8.10
2019-03-03T02:02:57.474Z,8.00
2019-03-03T02:05:57.274Z,7.90
2019-03-03T02:32:34.031Z,7.90
2019-03-03T02:35:01.842Z,7.80
2019-03-03T02:37:29.645Z,7.80
2019-03-03T02:39:57.438Z,7.90
2019-03-03T02:42:44.484Z,7.90
2019-03-03T03:03:23.222Z,8.00
2019-03-03T03:39:44.218Z,7.90
2019-03-03T04:21:32.819Z,7.90
2019-03-03T05:27:14.909Z,8.00
2019-03-03T07:00:10.678Z,8.20
2019-03-03T07:03:10.418Z,8.10
2019-03-03T07:08:54.678Z,8.20
2019-03-03T07:52:28.877Z,8.10
2019-03-03T07:55:18.266Z,8.10
2019-03-03T08:06:51.308Z,8.10
2019-03-03T08:31:01.940Z,8.20
2019-03-03T08:46:37.260Z,8.30
2019-03-03T08:50:00.660Z,8.40
2019-03-03T08:52:48.349Z,8.40
2019-03-03T08:56:11.350Z,8.50
2019-03-03T08:59:17.905Z,8.50
2019-03-03T09:11:38.619Z,8.50
2019-03-03T09:17:42.807Z,8.50
2019-03-03T09:35:54.926Z,8.50
2019-03-03T11:04:06.376Z,9.20
2019-03-03T11:25:40.564Z,9.30
2019-03-03T11:32:01.248Z,9.30
2019-03-03T11:47:50.101Z,9.60
2019-03-03T11:50:36.318Z,9.60
2019-03-03T11:53:27.114Z,9.70
2019-03-03T12:03:12.501Z,9.80
2019-03-03T12:09:18.202Z,9.60
2019-03-03T12:11:56.293Z,9.70
2019-03-03T12:14:42.840Z,9.70
2019-03-03T12:17:30.503Z,9.60
2019-03-03T12:20:20.993Z,9.60
2019-03-03T12:23:23.857Z,9.70
2019-03-03T12:29:48.086Z,9.80
2019-03-03T12:32:34.339Z,9.80
2019-03-03T12:35:16.139Z,9.70
2019-03-03T12:38:01.358Z,9.70
2019-03-03T12:40:50.275Z,9.70
2019-03-03T12:43:40.714Z,9.80
2019-03-03T12:50:42.502Z,9.90
2019-03-03T12:53:30.803Z,9.90
2019-03-03T12:56:24.330Z,9.90
2019-03-03T12:59:06.568Z,9.80
2019-03-03T13:02:00.525Z,9.90
2019-03-03T13:35:20.487Z,9.90
2019-03-03T13:41:23.548Z,9.90
2019-03-03T13:44:03.763Z,9.80
2019-03-03T13:49:48.363Z,9.90
2019-03-03T14:01:59.429Z,9.90
2019-03-03T14:08:13.538Z,9.80
2019-03-03T14:21:34.800Z,10.10
2019-03-03T14:31:00.546Z,10.00
2019-03-03T14:40:41.347Z,10.00
2019-03-03T14:46:40.269Z,10.00
2019-03-03T14:49:39.562Z,10.00
2019-03-03T14:58:32.614Z,9.80
2019-03-03T15:07:05.350Z,9.90
2019-03-03T15:09:45.623Z,9.80
2019-03-03T15:12:27.733Z,9.80
2019-03-03T15:15:08.206Z,9.80
2019-03-03T15:24:10.579Z,9.80
2019-03-03T15:27:18.994Z,9.80
2019-03-03T15:43:31.755Z,9.70
2019-03-03T15:46:09.888Z,9.70
2019-03-03T15:48:41.607Z,9.70
2019-03-03T15:55:05.318Z,9.80
2019-03-03T15:57:37.356Z,9.70
2019-03-03T16:00:10.677Z,9.80
2019-03-03T16:02:38.521Z,9.80
2019-03-03T16:05:07.562Z,9.80
2019-03-03T16:07:41.248Z,9.80
2019-03-03T16:10:13.140Z,9.80
2019-03-03T16:12:54.445Z,9.90
2019-03-03T16:16:18.444Z,9.80
2019-03-03T16:23:27.314Z,9.90
2019-03-03T16:29:46.041Z,9.90
2019-03-03T16:32:15.797Z,9.90
2019-03-03T16:34:44.200Z,10.00
2019-03-03T16:37:12.216Z,10.00
2019-03-03T16:39:40.548Z,9.90
2019-03-03T16:42:16.182Z,10.00
2019-03-03T16:44:43.770Z,9.90
2019-03-03T16:54:29.724Z,9.90
2019-03-03T16:57:15.713Z,9.80
2019-03-03T17:00:26.137Z,9.80
2019-03-03T17:02:59.960Z,9.80
2019-03-03T17:05:30.750Z,9.70
2019-03-03T17:07:58.628Z,9.70
2019-03-03T17:10:29.911Z,9.70
2019-03-03T17:14:02.582Z,9.70
2019-03-03T17:16:31.455Z,9.70
2019-03-03T17:19:03.062Z,9.60
2019-03-03T17:21:34.188Z,9.60
2019-03-03T17:24:09.474Z,9.60
2019-03-03T17:26:38.295Z,9.60
2019-03-03T17:29:10.788Z,9.60
2019-03-03T17:39:24.607Z,9.70
2019-03-03T17:41:56.471Z,9.60
2019-03-03T17:44:25.432Z,9.60
2019-03-03T17:46:54.924Z,9.60
2019-03-03T17:49:42.156Z,9.60
2019-03-03T17:58:52.087Z,9.70
2019-03-03T18:01:38.442Z,9.70
2019-03-03T18:04:16.420Z,9.80
2019-03-03T18:07:03.099Z,9.80
2019-03-03T18:09:38.481Z,9.80
2019-03-03T18:12:15.570Z,9.80
2019-03-03T18:15:31.244Z,9.80
2019-03-03T18:18:59.967Z,9.80
2019-03-03T18:21:29.647Z,9.80
2019-03-03T18:24:18.313Z,9.80
2019-03-03T18:26:45.035Z,9.80
2019-03-03T18:29:56.046Z,9.80
2019-03-03T18:32:28.630Z,9.90
2019-03-03T18:34:56.337Z,9.80
2019-03-03T18:37:45.590Z,9.80
2019-03-03T18:40:38.457Z,9.80
2019-03-03T18:43:23.175Z,9.80
2019-03-03T18:46:08.777Z,9.90
2019-03-03T18:48:46.433Z,9.80
2019-03-03T18:54:55.500Z,9.80
2019-03-03T18:57:27.147Z,9.80
2019-03-03T18:59:55.849Z,9.80
2019-03-03T19:02:25.618Z,9.80
2019-03-03T19:05:06.786Z,9.80
2019-03-03T19:07:39.280Z,9.80
2019-03-03T19:10:13.890Z,9.80
2019-03-03T19:12:48.083Z,9.80
2019-03-03T19:15:26.580Z,9.80
2019-03-03T19:17:57.258Z,9.80
2019-03-03T19:20:29.479Z,9.70
2019-03-03T19:23:01.562Z,9.70
2019-03-03T19:25:35.664Z,9.70
2019-03-03T19:28:06.769Z,9.70
2019-03-03T19:33:39.213Z,9.70
2019-03-03T19:36:17.244Z,9.70
2019-03-03T19:38:51.496Z,9.80
2019-03-03T19:41:25.244Z,9.70
2019-03-03T19:43:58.294Z,9.80
2019-03-03T19:46:31.217Z,9.70
2019-03-03T19:49:03.259Z,9.70
2019-03-03T19:51:34.053Z,9.70
2019-03-03T19:54:33.855Z,9.80
2019-03-03T19:57:26.967Z,9.80
2019-03-03T20:00:04.650Z,9.80
2019-03-03T20:02:34.673Z,9.80
2019-03-03T20:05:03.835Z,9.80
2019-03-03T20:07:39.209Z,9.80
2019-03-03T20:10:11.488Z,9.90
2019-03-03T20:12:43.644Z,9.90
2019-03-03T20:15:16.423Z,9.90
2019-03-03T20:21:23.728Z,9.90
2019-03-03T20:24:16.959Z,9.90
2019-03-03T20:26:44.619Z,9.90
2019-03-03T20:29:33.687Z,9.90
2019-03-03T20:32:05.693Z,9.90
2019-03-03T20:34:34.139Z,9.90
2019-03-03T20:37:06.840Z,10.00
2019-03-03T20:40:05.111Z,9.90
2019-03-03T20:42:39.042Z,9.90
2019-03-03T20:45:10.537Z,10.00
2019-03-03T20:47:45.386Z,10.00
2019-03-03T20:50:17.227Z,10.00
2019-03-03T20:52:52.141Z,10.00
2019-03-03T20:55:20.153Z,10.00
2019-03-03T20:58:09.720Z,10.10
2019-03-03T21:00:38.327Z,10.00
2019-03-03T21:03:14.731Z,10.10
2019-03-03T21:05:57.383Z,10.10
2019-03-03T21:08:39.390Z,10.10
2019-03-03T21:11:07.514Z,10.10
2019-03-03T21:13:41.609Z,10.10
2019-03-03T21:16:15.369Z,10.10
2019-03-03T21:18:43.340Z,10.20
2019-03-03T21:21:14.630Z,10.10
2019-03-03T21:23:44.595Z,9.90
2019-03-03T21:26:25.193Z,9.60
2019-03-03T21:29:28.535Z,9.70
2019-03-03T21:32:11.333Z,9.70
2019-03-03T21:34:40.615Z,9.70
2019-03-03T21:37:08.291Z,9.70
2019-03-03T21:39:43.309Z,9.70
2019-03-03T21:42:18.341Z,9.80
2019-03-03T21:44:47.337Z,9.70
2019-03-03T21:47:16.178Z,9.80
2019-03-03T21:49:49.821Z,9.80
2019-03-03T21:52:20.521Z,9.70
2019-03-03T21:54:51.778Z,9.60
2019-03-03T21:57:21.280Z,9.50
2019-03-03T21:59:52.932Z,9.50
2019-03-03T22:02:22.398Z,9.40
2019-03-03T22:04:51.456Z,9.30
2019-03-03T22:07:27.318Z,9.20
2019-03-03T22:10:03.494Z,9.20
2019-03-03T22:12:51.093Z,9.10
2019-03-03T22:15:22.774Z,9.20
2019-03-03T22:17:51.544Z,9.20
2019-03-03T22:20:23.411Z,9.20
2019-03-03T22:22:54.086Z,9.30
2019-03-03T22:25:23.055Z,9.30
2019-03-03T22:27:52.539Z,9.30
2019-03-03T22:30:20.507Z,9.40
2019-03-03T22:32:57.508Z,9.40
2019-03-03T22:35:29.790Z,9.50
2019-03-03T22:38:21.146Z,9.50
2019-03-03T22:40:47.097Z,9.70
2019-03-03T22:43:16.390Z,9.80
2019-03-03T22:45:47.169Z,9.80
2019-03-03T22:48:19.387Z,9.80
2019-03-03T22:50:48.421Z,9.80
2019-03-03T22:53:17.690Z,9.80
2019-03-03T22:55:45.717Z,9.80
2019-03-03T22:58:23.988Z,9.90
2019-03-03T23:01:28.621Z,9.90
2019-03-03T23:04:23.521Z,9.90
2019-03-03T23:07:12.028Z,9.90
2019-03-03T23:10:17.978Z,9.90
2019-03-03T23:13:24.591Z,10.00
2019-03-03T23:16:29.119Z,10.00
2019-03-03T23:19:46.369Z,10.10
2019-03-03T23:22:54.484Z,10.00
2019-03-03T23:25:52.688Z,10.00
2019-03-03T23:28:25.234Z,10.00
2019-03-03T23:30:58.595Z,10.00
2019-03-03T23:33:28.268Z,9.90
2019-03-03T23:35:56.183Z,9.90
2019-03-03T23:38:27.727Z,9.90
2019-03-03T23:40:57.529Z,10.00
2019-03-03T23:43:25.230Z,10.00
2019-03-03T23:45:54.251Z,9.90
2019-03-03T23:48:22.211Z,9.90
2019-03-03T23:50:51.210Z,9.90
2019-03-03T23:53:20.486Z,10.00
2019-03-03T23:55:49.676Z,10.00
2019-03-03T23:58:20.638Z,10.00
